createdAt,value
2022-08-19T00:02:17.289Z,13.30
2022-08-19T00:05:09.645Z,13.47
2022-08-19T00:08:02.376Z,12.70
2022-08-19T00:10:53.628Z,14.33
2022-08-19T00:13:46.769Z,13.40
2022-08-19T00:16:38.647Z,13.57
2022-08-19T00:19:30.151Z,13.00
2022-08-19T00:22:21.457Z,14.67
2022-08-19T00:25:14.240Z,14.20
2022-08-19T00:28:07.158Z,13.87
2022-08-19T00:30:58.408Z,14.70
2022-08-19T00:33:51.483Z,13.50
2022-08-19T00:36:42.884Z,14.23
2022-08-19T00:39:34.353Z,13.97
2022-08-19T00:42:29.410Z,15.00
2022-08-19T00:45:22.710Z,16.13
2022-08-19T00:48:14.822Z,16.77
2022-08-19T00:51:07.591Z,16.10
2022-08-19T00:53:59.588Z,16.77
2022-08-19T00:56:51.671Z,16.33
2022-08-19T01:00:01.026Z,14.17
2022-08-19T01:02:54.352Z,14.70
2022-08-19T01:05:46.766Z,13.87
2022-08-19T01:08:38.330Z,13.73
2022-08-19T01:11:29.925Z,12.97
2022-08-19T01:14:21.428Z,13.47
2022-08-19T01:17:14.688Z,13.80
2022-08-19T01:20:06.415Z,14.40
2022-08-19T01:23:00.002Z,13.33
2022-08-19T01:25:52.692Z,13.57
2022-08-19T01:28:44.607Z,13.97
2022-08-19T01:31:38.045Z,14.50
2022-08-19T01:34:29.539Z,14.23
2022-08-19T01:37:24.977Z,14.13
2022-08-19T01:40:21.389Z,14.73
2022-08-19T01:43:14.729Z,15.33
2022-08-19T01:46:06.225Z,16.23
2022-08-19T01:48:57.574Z,16.37
2022-08-19T01:51:50.446Z,16.13
2022-08-19T01:54:41.801Z,16.83
2022-08-19T01:57:34.483Z,16.33
2022-08-19T02:00:26.618Z,15.57
2022-08-19T02:03:18.590Z,18.07
2022-08-19T02:06:09.747Z,17.03
2022-08-19T02:09:02.518Z,17.23
2022-08-19T02:11:54.444Z,16.93
2022-08-19T02:14:47.283Z,18.37
2022-08-19T02:17:38.495Z,18.23
2022-08-19T02:20:29.591Z,17.50
2022-08-19T02:23:21.706Z,15.87
2022-08-19T02:26:13.624Z,16.70
2022-08-19T02:29:05.254Z,16.03
2022-08-19T02:31:58.202Z,14.80
2022-08-19T02:34:50.267Z,14.77
2022-08-19T02:37:59.057Z,15.63
2022-08-19T02:40:52.634Z,14.87
2022-08-19T02:44:30.162Z,14.93
2022-08-19T02:46:56.470Z,14.73
2022-08-19T02:49:50.727Z,14.87
2022-08-19T02:52:42.097Z,15.20
2022-08-19T02:55:45.794Z,14.67
2022-08-19T02:58:37.480Z,15.90
2022-08-19T03:01:30.858Z,16.53
2022-08-19T03:04:22.006Z,15.90
2022-08-19T03:07:17.372Z,16.70
2022-08-19T03:10:09.391Z,16.97
2022-08-19T03:13:00.963Z,17.17
2022-08-19T03:15:56.086Z,16.20
2022-08-19T03:18:47.484Z,15.30
2022-08-19T03:21:38.820Z,16.50
2022-08-19T03:24:31.652Z,16.30
2022-08-19T03:27:23.394Z,17.60
2022-08-19T03:30:15.192Z,16.30
2022-08-19T03:33:18.261Z,16.33
2022-08-19T03:36:21.588Z,16.20
2022-08-19T03:39:13.125Z,16.60
2022-08-19T03:42:38.237Z,17.63
2022-08-19T03:45:17.757Z,16.57
2022-08-19T03:48:09.525Z,17.43
2022-08-19T03:51:01.277Z,16.47
2022-08-19T03:53:52.632Z,17.47
2022-08-19T03:56:44.668Z,16.63
2022-08-19T03:59:37.923Z,16.50
2022-08-19T04:02:29.388Z,16.03
2022-08-19T04:05:20.409Z,16.10
2022-08-19T04:08:23.248Z,16.00
2022-08-19T04:11:15.769Z,16.80
2022-08-19T04:14:07.267Z,17.50
2022-08-19T04:17:00.318Z,15.83
2022-08-19T04:19:51.528Z,16.57
2022-08-19T04:22:42.711Z,17.43
2022-08-19T04:25:36.732Z,16.00
2022-08-19T04:28:28.153Z,16.17
2022-08-19T04:31:20.553Z,16.87
2022-08-19T04:34:14.345Z,16.30
2022-08-19T04:37:08.861Z,15.73
2022-08-19T04:40:17.461Z,16.00
2022-08-19T04:43:09.606Z,15.20
2022-08-19T04:46:06.019Z,17.07
2022-08-19T04:48:58.771Z,16.57
2022-08-19T04:51:52.430Z,16.07
2022-08-19T04:54:43.691Z,15.93
2022-08-19T04:57:35.110Z,16.43
2022-08-19T05:00:26.135Z,14.83
2022-08-19T05:03:18.048Z,15.60
2022-08-19T05:06:11.439Z,15.43
2022-08-19T05:09:05.123Z,15.13
2022-08-19T05:11:57.009Z,14.90
2022-08-19T05:14:48.929Z,15.03
2022-08-19T05:18:00.125Z,14.90
2022-08-19T05:21:09.125Z,15.97
2022-08-19T05:24:00.323Z,13.63
2022-08-19T05:26:53.341Z,15.40
2022-08-19T05:29:44.986Z,15.10
2022-08-19T05:32:36.186Z,15.20
2022-08-19T05:35:27.443Z,15.37
2022-08-19T05:38:18.820Z,14.57
2022-08-19T05:41:10.484Z,14.13
2022-08-19T05:44:07.019Z,14.93
2022-08-19T05:46:58.750Z,14.20
2022-08-19T05:49:51.750Z,15.30
2022-08-19T05:52:45.945Z,15.63
2022-08-19T05:55:42.187Z,15.03
2022-08-19T05:58:34.012Z,15.00
2022-08-19T06:01:27.622Z,15.53
2022-08-19T06:04:20.370Z,14.93
2022-08-19T06:07:13.604Z,15.10
2022-08-19T06:10:08.327Z,15.57
2022-08-19T06:12:59.705Z,15.40
2022-08-19T06:15:51.021Z,15.77
2022-08-19T06:18:45.148Z,15.73
2022-08-19T06:21:38.029Z,15.87
2022-08-19T06:24:30.236Z,16.07
2022-08-19T06:27:21.762Z,16.17
2022-08-19T06:30:13.589Z,16.40
2022-08-19T06:33:04.670Z,15.77
2022-08-19T06:35:57.144Z,17.97
2022-08-19T06:38:48.281Z,15.97
2022-08-19T06:41:47.142Z,17.20
2022-08-19T06:44:43.782Z,16.53
2022-08-19T06:47:39.513Z,17.53
2022-08-19T06:50:30.509Z,17.20
2022-08-19T06:53:23.215Z,17.00
2022-08-19T06:56:15.816Z,18.00
2022-08-19T06:59:08.161Z,17.03
2022-08-19T07:01:59.765Z,17.73
2022-08-19T07:04:52.694Z,18.00
2022-08-19T07:07:44.815Z,19.07
2022-08-19T07:10:44.183Z,18.53
2022-08-19T07:13:37.577Z,18.70
2022-08-19T07:16:29.712Z,18.67
2022-08-19T07:19:21.306Z,19.10
2022-08-19T07:22:13.138Z,18.33
2022-08-19T07:25:05.484Z,18.43
2022-08-19T07:27:58.232Z,18.07
2022-08-19T07:30:52.787Z,18.37
2022-08-19T07:33:44.373Z,19.07
2022-08-19T07:36:36.808Z,18.67
2022-08-19T07:39:29.467Z,19.13
2022-08-19T07:42:22.017Z,19.93
2022-08-19T07:45:16.616Z,18.17
2022-08-19T07:48:08.227Z,18.73
2022-08-19T07:51:02.778Z,19.43
2022-08-19T07:53:53.939Z,20.03
2022-08-19T07:56:45.185Z,20.37
2022-08-19T07:59:37.137Z,19.80
2022-08-19T08:02:29.650Z,18.80
2022-08-19T08:05:41.767Z,19.67
2022-08-19T08:08:54.625Z,20.27
2022-08-19T08:11:49.730Z,20.40
2022-08-19T08:14:44.861Z,19.87
2022-08-19T08:17:49.121Z,22.20
2022-08-19T08:20:42.569Z,21.37
2022-08-19T08:23:34.186Z,21.40
2022-08-19T08:26:26.023Z,21.53
2022-08-19T08:29:17.511Z,22.57
2022-08-19T08:32:14.878Z,24.43
2022-08-19T08:35:09.245Z,21.40
2022-08-19T08:38:00.667Z,21.50
2022-08-19T08:40:54.442Z,22.33
2022-08-19T08:43:48.207Z,21.27
2022-08-19T08:46:41.961Z,22.33
2022-08-19T08:49:39.241Z,22.23
2022-08-19T08:52:36.261Z,20.13
2022-08-19T08:55:36.734Z,21.47
2022-08-19T08:58:31.716Z,19.67
2022-08-19T09:01:23.480Z,21.10
2022-08-19T09:04:16.857Z,20.90
2022-08-19T09:07:34.491Z,20.57
2022-08-19T09:10:30.690Z,18.80
2022-08-19T09:13:27.232Z,19.17
2022-08-19T09:16:27.973Z,19.53
2022-08-19T09:19:22.477Z,19.57
2022-08-19T09:22:14.307Z,17.50
2022-08-19T09:25:24.706Z,18.63
2022-08-19T09:28:22.526Z,18.47
2022-08-19T09:31:19.744Z,17.97
2022-08-19T09:34:21.214Z,17.50
2022-08-19T09:37:13.405Z,17.50
2022-08-19T09:40:08.099Z,20.47
2022-08-19T09:43:11.446Z,16.47
2022-08-19T09:46:07.267Z,18.07
2022-08-19T09:49:06.027Z,17.60
2022-08-19T09:51:58.011Z,16.10
2022-08-19T09:54:51.888Z,17.33
2022-08-19T09:57:43.335Z,17.20
2022-08-19T10:00:34.571Z,17.03
2022-08-19T10:03:30.220Z,15.83
2022-08-19T10:06:46.253Z,16.30
2022-08-19T10:09:35.152Z,16.43
2022-08-19T10:12:26.457Z,16.87
2022-08-19T10:15:29.162Z,16.33
2022-08-19T10:18:22.151Z,16.40
2022-08-19T10:21:16.249Z,15.83
2022-08-19T10:24:09.516Z,16.57
2022-08-19T10:27:01.470Z,16.13
2022-08-19T10:29:53.529Z,17.40
2022-08-19T10:32:46.935Z,16.10
2022-08-19T10:35:42.565Z,17.03
2022-08-19T10:38:54.805Z,17.13
2022-08-19T10:41:47.915Z,17.07
2022-08-19T10:44:39.129Z,16.97
2022-08-19T10:47:31.786Z,16.20
2022-08-19T10:50:40.705Z,16.37
2022-08-19T10:53:33.032Z,16.10
2022-08-19T10:56:43.233Z,16.33
2022-08-19T10:59:36.253Z,15.50
2022-08-19T11:02:27.621Z,16.57
2022-08-19T11:05:19.340Z,16.20
2022-08-19T11:08:22.664Z,15.23
2022-08-19T11:11:15.289Z,15.57
2022-08-19T11:14:08.061Z,15.63
2022-08-19T11:16:59.583Z,15.77
2022-08-19T11:19:51.015Z,14.30
2022-08-19T11:22:43.299Z,15.93
2022-08-19T11:25:35.532Z,15.30
2022-08-19T11:28:26.772Z,16.00
2022-08-19T11:31:20.427Z,15.43
2022-08-19T11:34:13.504Z,16.13
2022-08-19T11:37:06.836Z,14.97
2022-08-19T11:39:58.362Z,16.40
2022-08-19T11:46:08.872Z,14.23
2022-08-19T11:49:02.615Z,14.50
2022-08-19T11:51:54.484Z,14.20
2022-08-19T11:54:45.614Z,13.83
2022-08-19T11:57:36.839Z,14.43
2022-08-19T12:00:28.190Z,13.23
2022-08-19T12:03:19.506Z,14.80
2022-08-19T12:06:15.223Z,12.37
2022-08-19T12:09:08.321Z,12.47
2022-08-19T12:12:00.363Z,11.90
2022-08-19T12:14:57.468Z,12.03
2022-08-19T12:17:48.950Z,11.50
2022-08-19T12:20:40.752Z,13.20
2022-08-19T12:23:33.484Z,11.43
2022-08-19T12:26:25.432Z,11.20
2022-08-19T12:29:20.383Z,10.57
2022-08-19T12:32:14.541Z,10.13
2022-08-19T12:35:06.269Z,10.27
2022-08-19T12:37:57.863Z,10.83
2022-08-19T12:40:54.371Z,10.63
2022-08-19T12:43:49.246Z,11.10
2022-08-19T12:46:40.942Z,10.67
2022-08-19T12:49:53.365Z,10.60
2022-08-19T12:52:46.503Z,11.07
2022-08-19T12:55:37.701Z,10.77
2022-08-19T12:58:30.809Z,10.93
2022-08-19T13:01:22.763Z,12.73
2022-08-19T13:04:14.963Z,24.07
2022-08-19T13:07:06.212Z,14.00
2022-08-19T13:09:57.758Z,12.38
2022-08-19T13:12:51.096Z,11.88
2022-08-19T13:15:47.883Z,12.60
2022-08-19T13:18:39.221Z,11.43
2022-08-19T13:21:30.969Z,11.93
2022-08-19T13:24:22.492Z,11.55
2022-08-19T13:27:18.564Z,14.57
2022-08-19T13:30:28.822Z,11.10
2022-08-19T13:33:21.729Z,11.93
2022-08-19T13:36:12.830Z,12.30
2022-08-19T13:39:04.482Z,11.55
2022-08-19T13:42:02.188Z,15.98
2022-08-19T13:44:55.543Z,11.43
2022-08-19T13:47:47.793Z,12.05
2022-08-19T13:50:42.580Z,12.33
2022-08-19T13:53:34.118Z,13.30
2022-08-19T13:56:26.501Z,12.03
2022-08-19T13:59:20.080Z,12.20
2022-08-19T14:02:11.796Z,11.80
2022-08-19T14:05:05.327Z,11.33
2022-08-19T14:07:58.333Z,12.67
2022-08-19T14:10:49.786Z,12.50
2022-08-19T14:13:41.059Z,12.13
2022-08-19T14:16:32.420Z,13.27
2022-08-19T14:19:23.926Z,12.90
2022-08-19T14:22:15.118Z,11.23
2022-08-19T14:25:15.949Z,11.47
2022-08-19T14:28:07.780Z,12.17
2022-08-19T14:30:59.353Z,10.97
2022-08-19T14:33:51.390Z,11.50
2022-08-19T14:36:42.848Z,10.63
2022-08-19T14:39:34.665Z,11.50
2022-08-19T14:42:27.325Z,10.10
2022-08-19T14:45:18.761Z,9.80
2022-08-19T14:48:12.578Z,11.40
2022-08-19T14:51:10.960Z,10.80
2022-08-19T14:54:02.181Z,11.10
2022-08-19T14:56:53.514Z,10.77
2022-08-19T14:59:45.933Z,11.40
2022-08-19T15:02:37.566Z,10.57
2022-08-19T15:05:28.891Z,10.10
2022-08-19T15:08:20.088Z,10.13
2022-08-19T15:11:15.418Z,9.07
2022-08-19T15:14:08.048Z,10.23
2022-08-19T15:17:00.436Z,10.40
2022-08-19T15:19:52.161Z,10.60
2022-08-19T15:22:43.537Z,10.87
2022-08-19T15:25:35.361Z,10.60
2022-08-19T15:28:27.736Z,10.30
2022-08-19T15:31:28.019Z,11.53
2022-08-19T15:34:21.644Z,11.00
2022-08-19T15:37:12.830Z,10.63
2022-08-19T15:40:05.397Z,11.13
2022-08-19T15:42:58.864Z,11.87
2022-08-19T15:45:50.339Z,10.83
2022-08-19T15:48:41.564Z,10.30
2022-08-19T15:51:35.464Z,11.07
2022-08-19T15:54:27.423Z,11.10
2022-08-19T15:57:36.165Z,11.70
2022-08-19T16:00:47.128Z,11.40
2022-08-19T16:04:01.890Z,10.77
2022-08-19T16:06:55.659Z,10.77
2022-08-19T16:09:47.045Z,11.10
2022-08-19T16:12:39.292Z,10.90
2022-08-19T16:15:33.778Z,11.80
2022-08-19T16:18:26.109Z,11.20
2022-08-19T16:21:17.901Z,11.83
2022-08-19T16:24:12.144Z,11.60
2022-08-19T16:27:03.464Z,13.07
2022-08-19T16:29:54.786Z,18.30
2022-08-19T16:32:45.972Z,11.57
2022-08-19T16:35:37.255Z,12.87
2022-08-19T16:38:29.164Z,11.23
2022-08-19T16:41:22.402Z,12.17
2022-08-19T16:44:14.544Z,12.20
2022-08-19T16:47:05.765Z,12.97
2022-08-19T16:49:56.972Z,12.40
2022-08-19T16:52:48.229Z,12.47
2022-08-19T16:55:39.531Z,11.77
2022-08-19T16:58:34.486Z,12.53
2022-08-19T17:01:26.345Z,12.47
2022-08-19T17:04:17.475Z,12.20
2022-08-19T17:07:10.349Z,10.77
2022-08-19T17:10:02.159Z,10.90
2022-08-19T17:12:55.033Z,12.07
2022-08-19T17:15:48.137Z,11.73
2022-08-19T17:18:39.288Z,11.60
2022-08-19T17:21:32.050Z,11.43
2022-08-19T17:24:23.051Z,11.50
2022-08-19T17:27:14.253Z,11.07
2022-08-19T17:30:06.817Z,11.23
2022-08-19T17:32:59.666Z,9.60
2022-08-19T17:35:50.928Z,11.03
2022-08-19T17:38:42.753Z,9.37
2022-08-19T17:41:35.193Z,9.03
2022-08-19T17:44:26.513Z,8.63
2022-08-19T17:47:17.583Z,8.73
2022-08-19T17:50:13.032Z,8.93
2022-08-19T17:53:05.585Z,9.93
2022-08-19T17:55:57.118Z,14.87
2022-08-19T17:58:54.403Z,9.13
2022-08-19T18:01:54.455Z,8.30
2022-08-19T18:04:48.801Z,8.53
2022-08-19T18:07:44.641Z,9.43
2022-08-19T18:10:36.552Z,9.83
2022-08-19T18:13:27.732Z,9.30
2022-08-19T18:16:20.818Z,9.13
2022-08-19T18:19:12.143Z,9.07
2022-08-19T18:22:03.449Z,8.83
2022-08-19T18:24:56.144Z,7.97
2022-08-19T18:27:47.815Z,8.50
2022-08-19T18:30:39.219Z,8.30
2022-08-19T18:33:30.653Z,8.73
2022-08-19T18:36:50.117Z,8.10
2022-08-19T18:39:50.816Z,9.03
2022-08-19T18:43:18.694Z,8.60
2022-08-19T18:46:27.305Z,8.80
2022-08-19T18:49:25.694Z,9.33
2022-08-19T18:52:17.209Z,8.63
2022-08-19T18:55:08.941Z,8.83
2022-08-19T18:58:02.753Z,9.43
2022-08-19T19:00:57.743Z,9.53
2022-08-19T19:04:17.716Z,9.73
2022-08-19T19:07:11.605Z,10.20
2022-08-19T19:10:02.995Z,9.83
2022-08-19T19:12:54.522Z,10.17
2022-08-19T19:15:47.312Z,11.70
2022-08-19T19:18:38.583Z,10.60
2022-08-19T19:21:34.084Z,10.63
2022-08-19T19:24:28.850Z,11.60
2022-08-19T19:27:21.324Z,11.23
2022-08-19T19:30:16.416Z,11.17
2022-08-19T19:33:08.991Z,12.13
2022-08-19T19:36:00.020Z,12.07
2022-08-19T19:38:51.303Z,12.30
2022-08-19T19:41:42.820Z,11.77
2022-08-19T19:44:34.215Z,13.17
2022-08-19T19:47:30.333Z,12.97
2022-08-19T19:50:22.979Z,13.77
2022-08-19T19:53:15.102Z,13.30
2022-08-19T19:56:06.565Z,13.83
2022-08-19T19:58:58.083Z,13.90
2022-08-19T20:01:50.486Z,15.90
2022-08-19T20:04:45.831Z,13.87
2022-08-19T20:07:56.749Z,14.10
2022-08-19T20:10:48.194Z,14.37
2022-08-19T20:13:40.704Z,13.70
2022-08-19T20:16:33.102Z,13.93
2022-08-19T20:19:26.105Z,15.00
2022-08-19T20:22:18.338Z,14.77
2022-08-19T20:25:12.148Z,15.00
2022-08-19T20:28:05.765Z,16.20
2022-08-19T20:30:57.420Z,15.50
2022-08-19T20:33:49.793Z,16.20
2022-08-19T20:36:41.187Z,14.73
2022-08-19T20:39:32.348Z,15.97
2022-08-19T20:42:24.896Z,16.43
2022-08-19T20:45:26.725Z,15.37
2022-08-19T20:48:25.655Z,16.30
2022-08-19T20:51:16.987Z,16.83
2022-08-19T20:54:08.101Z,17.73
2022-08-19T20:56:59.230Z,18.67
2022-08-19T20:59:51.881Z,17.27
2022-08-19T21:02:43.214Z,18.50
2022-08-19T21:05:34.346Z,18.93
2022-08-19T21:08:27.627Z,20.73
2022-08-19T21:11:20.735Z,20.13
2022-08-19T21:14:12.863Z,21.47
2022-08-19T21:17:05.315Z,23.27
2022-08-19T21:19:56.478Z,22.40
2022-08-19T21:22:47.591Z,24.00
2022-08-19T21:25:38.904Z,24.00
2022-08-19T21:28:36.253Z,21.33
2022-08-19T21:31:27.893Z,21.07
2022-08-19T21:34:20.480Z,19.57
2022-08-19T21:37:24.955Z,20.77
2022-08-19T21:40:16.736Z,19.07
2022-08-19T21:43:08.177Z,19.40
2022-08-19T21:45:59.229Z,18.13
2022-08-19T21:48:50.407Z,18.50
2022-08-19T21:51:43.289Z,19.33
2022-08-19T21:54:38.516Z,20.03
2022-08-19T21:57:29.920Z,19.30
2022-08-19T22:00:23.643Z,18.83
2022-08-19T22:03:17.671Z,18.97
2022-08-19T22:06:09.442Z,19.23
2022-08-19T22:09:01.896Z,19.93
2022-08-19T22:11:53.165Z,20.53
2022-08-19T22:14:44.415Z,20.40
2022-08-19T22:17:35.685Z,21.87
2022-08-19T22:20:28.458Z,21.03
2022-08-19T22:23:19.737Z,21.10
2022-08-19T22:26:12.583Z,20.20
2022-08-19T22:29:04.420Z,20.97
2022-08-19T22:31:58.159Z,20.80
2022-08-19T22:34:49.868Z,21.47
2022-08-19T22:37:41.889Z,20.33
2022-08-19T22:40:33.228Z,20.23
2022-08-19T22:43:28.566Z,20.47
2022-08-19T22:46:19.867Z,20.57
2022-08-19T22:49:11.055Z,20.57
2022-08-19T22:52:18.197Z,20.83
2022-08-19T22:55:09.532Z,21.23
2022-08-19T22:58:00.997Z,19.63
2022-08-19T23:00:53.621Z,20.27
2022-08-19T23:03:44.811Z,19.93
2022-08-19T23:06:40.264Z,20.97
2022-08-19T23:09:33.111Z,21.07
2022-08-19T23:12:30.170Z,21.20
2022-08-19T23:15:24.562Z,20.80
2022-08-19T23:18:17.328Z,20.63
2022-08-19T23:21:09.562Z,21.63
2022-08-19T23:24:00.636Z,21.70
2022-08-19T23:27:09.431Z,21.97
2022-08-19T23:30:18.172Z,21.20
2022-08-19T23:33:14.842Z,22.03
2022-08-19T23:36:08.867Z,21.63
2022-08-19T23:39:00.932Z,21.97
2022-08-19T23:41:52.783Z,20.73
2022-08-19T23:44:51.669Z,20.93
2022-08-19T23:47:44.713Z,19.63
2022-08-19T23:50:36.271Z,19.63
2022-08-19T23:53:29.511Z,19.87
2022-08-19T23:56:21.540Z,20.30
2022-08-19T23:59:12.684Z,20.67
